sensor_id;sensor_type;location;lat;lon;timestamp;temperature;humidity
9762;DHT22;4920;49.594;11.022;2023-05-16T00:00:01;10.70;99.90
9762;DHT22;4920;49.594;11.022;2023-05-16T00:02:34;10.70;99.90
9762;DHT22;4920;49.594;11.022;2023-05-16T00:05:04;10.70;99.90
9762;DHT22;4920;49.594;11.022;2023-05-16T00:07:34;10.60;99.90
9762;DHT22;4920;49.594;11.022;2023-05-16T00:10:03;10.60;99.90
9762;DHT22;4920;49.594;11.022;2023-05-16T00:12:32;10.60;99.90
9762;DHT22;4920;49.594;11.022;2023-05-16T00:15:03;10.50;99.90
9762;DHT22;4920;49.594;11.022;2023-05-16T00:17:34;10.40;99.90
9762;DHT22;4920;49.594;11.022;2023-05-16T00:20:04;10.50;99.90
9762;DHT22;4920;49.594;11.022;2023-05-16T00:22:35;10.40;99.90
9762;DHT22;4920;49.594;11.022;2023-05-16T00:25:04;10.40;99.90
9762;DHT22;4920;49.594;11.022;2023-05-16T00:27:33;10.40;99.90
9762;DHT22;4920;49.594;11.022;2023-05-16T00:30:02;10.30;99.90
9762;DHT22;4920;49.594;11.022;2023-05-16T00:32:31;10.40;99.90
9762;DHT22;4920;49.594;11.022;2023-05-16T00:35:02;10.40;99.90
9762;DHT22;4920;49.594;11.022;2023-05-16T00:37:31;10.40;99.90
9762;DHT22;4920;49.594;11.022;2023-05-16T00:40:00;10.40;99.90
9762;DHT22;4920;49.594;11.022;2023-05-16T00:42:29;10.40;99.90
9762;DHT22;4920;49.594;11.022;2023-05-16T00:44:58;10.40;99.90
9762;DHT22;4920;49.594;11.022;2023-05-16T00:47:28;10.40;99.90
9762;DHT22;4920;49.594;11.022;2023-05-16T00:49:56;10.50;99.90
9762;DHT22;4920;49.594;11.022;2023-05-16T00:52:27;10.50;99.90
9762;DHT22;4920;49.594;11.022;2023-05-16T00:54:57;10.50;99.90
9762;DHT22;4920;49.594;11.022;2023-05-16T00:57:26;10.50;99.90
9762;DHT22;4920;49.594;11.022;2023-05-16T00:59:55;10.50;99.90
9762;DHT22;4920;49.594;11.022;2023-05-16T01:02:24;10.50;99.90
9762;DHT22;4920;49.594;11.022;2023-05-16T01:04:55;10.50;99.90
9762;DHT22;4920;49.594;11.022;2023-05-16T01:07:24;10.50;99.90
9762;DHT22;4920;49.594;11.022;2023-05-16T01:09:54;10.50;99.90
9762;DHT22;4920;49.594;11.022;2023-05-16T01:12:32;10.40;99.90
9762;DHT22;4920;49.594;11.022;2023-05-16T01:15:07;10.40;99.90
9762;DHT22;4920;49.594;11.022;2023-05-16T01:17:45;10.40;99.90
9762;DHT22;4920;49.594;11.022;2023-05-16T01:20:24;10.30;99.90
9762;DHT22;4920;49.594;11.022;2023-05-16T01:23:05;10.30;99.90
9762;DHT22;4920;49.594;11.022;2023-05-16T01:25:49;10.30;99.90
9762;DHT22;4920;49.594;11.022;2023-05-16T01:28:22;10.40;99.90
9762;DHT22;4920;49.594;11.022;2023-05-16T01:30:56;10.40;99.90
9762;DHT22;4920;49.594;11.022;2023-05-16T01:33:24;10.40;99.90
9762;DHT22;4920;49.594;11.022;2023-05-16T01:35:58;10.40;99.90
9762;DHT22;4920;49.594;11.022;2023-05-16T01:38:35;10.40;99.90
9762;DHT22;4920;49.594;11.022;2023-05-16T01:41:09;10.40;99.90
9762;DHT22;4920;49.594;11.022;2023-05-16T01:43:43;10.40;99.90
9762;DHT22;4920;49.594;11.022;2023-05-16T01:46:15;10.30;99.90
9762;DHT22;4920;49.594;11.022;2023-05-16T01:48:52;10.40;99.90
9762;DHT22;4920;49.594;11.022;2023-05-16T01:51:25;10.40;99.90
9762;DHT22;4920;49.594;11.022;2023-05-16T01:54:04;10.40;99.90
9762;DHT22;4920;49.594;11.022;2023-05-16T01:56:33;10.50;99.90
9762;DHT22;4920;49.594;11.022;2023-05-16T01:59:07;10.60;99.90
9762;DHT22;4920;49.594;11.022;2023-05-16T02:01:36;10.60;99.90
9762;DHT22;4920;49.594;11.022;2023-05-16T02:04:05;10.70;99.90
9762;DHT22;4920;49.594;11.022;2023-05-16T02:06:34;10.80;99.90
9762;DHT22;4920;49.594;11.022;2023-05-16T02:09:03;10.80;99.90
9762;DHT22;4920;49.594;11.022;2023-05-16T02:11:32;10.80;99.90
9762;DHT22;4920;49.594;11.022;2023-05-16T02:14:01;10.90;99.90
9762;DHT22;4920;49.594;11.022;2023-05-16T02:16:32;10.90;99.90
9762;DHT22;4920;49.594;11.022;2023-05-16T02:19:01;10.90;99.90
9762;DHT22;4920;49.594;11.022;2023-05-16T02:21:30;10.90;99.90
9762;DHT22;4920;49.594;11.022;2023-05-16T02:23:59;10.90;99.90
9762;DHT22;4920;49.594;11.022;2023-05-16T02:26:28;10.90;99.90
9762;DHT22;4920;49.594;11.022;2023-05-16T02:28:57;10.90;99.90
9762;DHT22;4920;49.594;11.022;2023-05-16T02:31:27;10.80;99.90
9762;DHT22;4920;49.594;11.022;2023-05-16T02:33:58;10.80;99.90
9762;DHT22;4920;49.594;11.022;2023-05-16T02:36:28;10.80;99.90
9762;DHT22;4920;49.594;11.022;2023-05-16T02:38:57;10.70;99.90
9762;DHT22;4920;49.594;11.022;2023-05-16T02:41:26;10.70;99.90
9762;DHT22;4920;49.594;11.022;2023-05-16T02:43:55;10.60;99.90
9762;DHT22;4920;49.594;11.022;2023-05-16T02:46:25;10.60;99.90
9762;DHT22;4920;49.594;11.022;2023-05-16T02:48:54;10.50;99.90
9762;DHT22;4920;49.594;11.022;2023-05-16T02:51:25;10.40;99.90
9762;DHT22;4920;49.594;11.022;2023-05-16T02:53:54;10.30;99.90
9762;DHT22;4920;49.594;11.022;2023-05-16T02:56:26;10.30;99.90
9762;DHT22;4920;49.594;11.022;2023-05-16T02:58:55;10.20;99.90
9762;DHT22;4920;49.594;11.022;2023-05-16T03:01:24;10.20;99.90
9762;DHT22;4920;49.594;11.022;2023-05-16T03:03:52;10.20;99.90
9762;DHT22;4920;49.594;11.022;2023-05-16T03:06:23;10.30;99.90
9762;DHT22;4920;49.594;11.022;2023-05-16T03:08:52;10.30;99.90
9762;DHT22;4920;49.594;11.022;2023-05-16T03:11:21;10.40;99.90
9762;DHT22;4920;49.594;11.022;2023-05-16T03:13:51;10.40;99.90
9762;DHT22;4920;49.594;11.022;2023-05-16T03:16:19;10.50;99.90
9762;DHT22;4920;49.594;11.022;2023-05-16T03:18:51;10.50;99.90
9762;DHT22;4920;49.594;11.022;2023-05-16T03:21:20;10.50;99.90
9762;DHT22;4920;49.594;11.022;2023-05-16T03:23:53;10.50;99.90
9762;DHT22;4920;49.594;11.022;2023-05-16T03:26:22;10.50;99.90
9762;DHT22;4920;49.594;11.022;2023-05-16T03:28:52;10.50;99.90
9762;DHT22;4920;49.594;11.022;2023-05-16T03:31:20;10.40;99.90
9762;DHT22;4920;49.594;11.022;2023-05-16T03:33:52;10.40;99.90
9762;DHT22;4920;49.594;11.022;2023-05-16T03:36:21;10.40;99.90
9762;DHT22;4920;49.594;11.022;2023-05-16T03:38:55;10.40;99.90
9762;DHT22;4920;49.594;11.022;2023-05-16T03:41:24;10.40;99.90
9762;DHT22;4920;49.594;11.022;2023-05-16T03:43:53;10.30;99.90
9762;DHT22;4920;49.594;11.022;2023-05-16T03:46:22;10.30;99.90
9762;DHT22;4920;49.594;11.022;2023-05-16T03:48:51;10.30;99.90
9762;DHT22;4920;49.594;11.022;2023-05-16T03:51:20;10.30;99.90
9762;DHT22;4920;49.594;11.022;2023-05-16T03:53:49;10.30;99.90
9762;DHT22;4920;49.594;11.022;2023-05-16T03:56:19;10.30;99.90
9762;DHT22;4920;49.594;11.022;2023-05-16T03:58:51;10.30;99.90
9762;DHT22;4920;49.594;11.022;2023-05-16T04:01:20;10.40;99.90
9762;DHT22;4920;49.594;11.022;2023-05-16T04:03:49;10.40;99.90
9762;DHT22;4920;49.594;11.022;2023-05-16T04:06:18;10.40;99.90
9762;DHT22;4920;49.594;11.022;2023-05-16T04:08:48;10.50;99.90
9762;DHT22;4920;49.594;11.022;2023-05-16T04:11:17;10.50;99.90
9762;DHT22;4920;49.594;11.022;2023-05-16T04:13:47;10.50;99.90
9762;DHT22;4920;49.594;11.022;2023-05-16T04:16:16;10.60;99.90
9762;DHT22;4920;49.594;11.022;2023-05-16T04:18:45;10.60;99.90
9762;DHT22;4920;49.594;11.022;2023-05-16T04:21:14;10.60;99.90
9762;DHT22;4920;49.594;11.022;2023-05-16T04:27:04;10.60;99.90
9762;DHT22;4920;49.594;11.022;2023-05-16T04:29:36;10.60;99.90
9762;DHT22;4920;49.594;11.022;2023-05-16T04:32:13;10.50;99.90
9762;DHT22;4920;49.594;11.022;2023-05-16T04:34:43;10.60;99.90
9762;DHT22;4920;49.594;11.022;2023-05-16T04:37:14;10.60;99.90
9762;DHT22;4920;49.594;11.022;2023-05-16T04:39:43;10.50;99.90
9762;DHT22;4920;49.594;11.022;2023-05-16T04:42:13;10.60;99.90
9762;DHT22;4920;49.594;11.022;2023-05-16T04:44:44;10.60;99.90
9762;DHT22;4920;49.594;11.022;2023-05-16T04:47:14;10.60;99.90
9762;DHT22;4920;49.594;11.022;2023-05-16T04:49:42;10.60;99.90
9762;DHT22;4920;49.594;11.022;2023-05-16T04:52:11;10.60;99.90
9762;DHT22;4920;49.594;11.022;2023-05-16T04:55:06;10.70;99.90
9762;DHT22;4920;49.594;11.022;2023-05-16T04:57:35;10.80;99.90
9762;DHT22;4920;49.594;11.022;2023-05-16T05:00:10;10.80;99.90
9762;DHT22;4920;49.594;11.022;2023-05-16T05:02:39;10.90;99.90
9762;DHT22;4920;49.594;11.022;2023-05-16T05:05:15;11.10;99.90
9762;DHT22;4920;49.594;11.022;2023-05-16T05:07:48;11.30;99.90
9762;DHT22;4920;49.594;11.022;2023-05-16T05:10:18;11.40;99.90
9762;DHT22;4920;49.594;11.022;2023-05-16T05:12:48;11.60;99.90
9762;DHT22;4920;49.594;11.022;2023-05-16T05:15:22;11.70;99.90
9762;DHT22;4920;49.594;11.022;2023-05-16T05:17:53;11.80;99.90
9762;DHT22;4920;49.594;11.022;2023-05-16T05:20:22;11.90;99.90
9762;DHT22;4920;49.594;11.022;2023-05-16T05:22:53;12.00;99.90
9762;DHT22;4920;49.594;11.022;2023-05-16T05:25:22;12.10;99.90
9762;DHT22;4920;49.594;11.022;2023-05-16T05:27:51;12.20;99.90
9762;DHT22;4920;49.594;11.022;2023-05-16T05:30:29;12.30;99.90
9762;DHT22;4920;49.594;11.022;2023-05-16T05:32:58;12.30;99.90
9762;DHT22;4920;49.594;11.022;2023-05-16T05:35:32;12.40;99.90
9762;DHT22;4920;49.594;11.022;2023-05-16T05:38:02;12.30;99.90
9762;DHT22;4920;49.594;11.022;2023-05-16T05:40:31;12.30;99.90
9762;DHT22;4920;49.594;11.022;2023-05-16T05:43:00;12.20;99.90
9762;DHT22;4920;49.594;11.022;2023-05-16T05:45:31;12.20;99.90
9762;DHT22;4920;49.594;11.022;2023-05-16T05:48:00;12.30;99.90
9762;DHT22;4920;49.594;11.022;2023-05-16T05:50:29;12.30;99.90
9762;DHT22;4920;49.594;11.022;2023-05-16T05:52:57;12.30;99.90
9762;DHT22;4920;49.594;11.022;2023-05-16T05:55:26;12.20;99.90
9762;DHT22;4920;49.594;11.022;2023-05-16T05:57:55;12.20;99.90
9762;DHT22;4920;49.594;11.022;2023-05-16T06:00:24;12.20;99.90
9762;DHT22;4920;49.594;11.022;2023-05-16T06:02:55;12.30;99.90
9762;DHT22;4920;49.594;11.022;2023-05-16T06:05:24;12.30;99.90
9762;DHT22;4920;49.594;11.022;2023-05-16T06:07:54;12.40;99.90
9762;DHT22;4920;49.594;11.022;2023-05-16T06:10:22;12.60;99.90
9762;DHT22;4920;49.594;11.022;2023-05-16T06:12:51;12.70;99.90
9762;DHT22;4920;49.594;11.022;2023-05-16T06:15:20;13.00;99.90
9762;DHT22;4920;49.594;11.022;2023-05-16T06:17:49;13.30;99.90
9762;DHT22;4920;49.594;11.022;2023-05-16T06:20:19;13.70;99.90
9762;DHT22;4920;49.594;11.022;2023-05-16T06:22:48;14.10;99.90
9762;DHT22;4920;49.594;11.022;2023-05-16T06:25:17;14.50;99.90
9762;DHT22;4920;49.594;11.022;2023-05-16T06:27:46;14.80;99.90
9762;DHT22;4920;49.594;11.022;2023-05-16T06:30:15;15.00;99.90
9762;DHT22;4920;49.594;11.022;2023-05-16T06:32:44;15.20;99.90
9762;DHT22;4920;49.594;11.022;2023-05-16T06:35:13;15.50;99.90
9762;DHT22;4920;49.594;11.022;2023-05-16T06:37:43;15.90;99.90
9762;DHT22;4920;49.594;11.022;2023-05-16T06:40:12;16.30;99.90
9762;DHT22;4920;49.594;11.022;2023-05-16T06:42:47;16.80;99.90
9762;DHT22;4920;49.594;11.022;2023-05-16T06:45:16;17.00;99.90
9762;DHT22;4920;49.594;11.022;2023-05-16T06:47:45;17.20;99.90
9762;DHT22;4920;49.594;11.022;2023-05-16T06:50:14;17.30;99.90
9762;DHT22;4920;49.594;11.022;2023-05-16T06:52:44;17.20;99.90
9762;DHT22;4920;49.594;11.022;2023-05-16T06:55:13;17.20;99.90
9762;DHT22;4920;49.594;11.022;2023-05-16T06:57:42;17.20;99.90
9762;DHT22;4920;49.594;11.022;2023-05-16T07:00:11;17.20;99.90
9762;DHT22;4920;49.594;11.022;2023-05-16T07:02:40;17.30;99.90
9762;DHT22;4920;49.594;11.022;2023-05-16T07:05:09;17.30;99.90
9762;DHT22;4920;49.594;11.022;2023-05-16T07:07:38;17.30;99.90
9762;DHT22;4920;49.594;11.022;2023-05-16T07:10:09;17.30;99.90
9762;DHT22;4920;49.594;11.022;2023-05-16T07:12:41;17.40;99.90
9762;DHT22;4920;49.594;11.022;2023-05-16T07:15:10;17.40;99.90
9762;DHT22;4920;49.594;11.022;2023-05-16T07:17:39;17.30;99.90
9762;DHT22;4920;49.594;11.022;2023-05-16T07:20:08;17.10;99.90
9762;DHT22;4920;49.594;11.022;2023-05-16T07:22:39;16.90;99.90
9762;DHT22;4920;49.594;11.022;2023-05-16T07:25:10;17.00;99.90
9762;DHT22;4920;49.594;11.022;2023-05-16T07:27:41;17.00;99.90
9762;DHT22;4920;49.594;11.022;2023-05-16T07:30:12;17.20;99.90
9762;DHT22;4920;49.594;11.022;2023-05-16T07:32:41;17.30;99.90
9762;DHT22;4920;49.594;11.022;2023-05-16T07:35:10;17.30;99.90
9762;DHT22;4920;49.594;11.022;2023-05-16T07:37:39;17.30;99.90
9762;DHT22;4920;49.594;11.022;2023-05-16T07:40:11;17.30;99.90
9762;DHT22;4920;49.594;11.022;2023-05-16T07:42:41;17.40;99.90
9762;DHT22;4920;49.594;11.022;2023-05-16T07:45:09;17.40;99.90
9762;DHT22;4920;49.594;11.022;2023-05-16T07:47:38;17.40;99.90
9762;DHT22;4920;49.594;11.022;2023-05-16T07:50:07;17.30;99.90
9762;DHT22;4920;49.594;11.022;2023-05-16T07:52:36;17.30;99.90
9762;DHT22;4920;49.594;11.022;2023-05-16T07:55:06;17.40;99.90
9762;DHT22;4920;49.594;11.022;2023-05-16T07:57:37;17.60;99.90
9762;DHT22;4920;49.594;11.022;2023-05-16T08:00:17;17.80;99.90
9762;DHT22;4920;49.594;11.022;2023-05-16T08:02:48;18.00;99.90
9762;DHT22;4920;49.594;11.022;2023-05-16T08:05:17;18.30;99.90
9762;DHT22;4920;49.594;11.022;2023-05-16T08:07:46;18.60;99.90
9762;DHT22;4920;49.594;11.022;2023-05-16T08:10:15;18.60;99.90
9762;DHT22;4920;49.594;11.022;2023-05-16T08:12:46;18.50;99.90
9762;DHT22;4920;49.594;11.022;2023-05-16T08:15:20;18.80;99.90
9762;DHT22;4920;49.594;11.022;2023-05-16T08:17:49;19.00;99.90
9762;DHT22;4920;49.594;11.022;2023-05-16T08:20:18;19.00;99.90
9762;DHT22;4920;49.594;11.022;2023-05-16T08:22:47;19.00;99.90
9762;DHT22;4920;49.594;11.022;2023-05-16T08:25:15;19.10;99.90
9762;DHT22;4920;49.594;11.022;2023-05-16T08:27:47;19.00;99.90
9762;DHT22;4920;49.594;11.022;2023-05-16T08:30:16;18.70;99.90
9762;DHT22;4920;49.594;11.022;2023-05-16T08:32:45;18.40;99.90
9762;DHT22;4920;49.594;11.022;2023-05-16T08:35:14;18.20;99.90
9762;DHT22;4920;49.594;11.022;2023-05-16T08:37:43;18.10;99.90
9762;DHT22;4920;49.594;11.022;2023-05-16T08:40:12;18.10;99.90
9762;DHT22;4920;49.594;11.022;2023-05-16T08:42:41;18.20;99.90
9762;DHT22;4920;49.594;11.022;2023-05-16T08:45:12;18.00;99.90
9762;DHT22;4920;49.594;11.022;2023-05-16T08:47:43;17.80;99.90
9762;DHT22;4920;49.594;11.022;2023-05-16T08:50:13;17.70;99.90
9762;DHT22;4920;49.594;11.022;2023-05-16T08:52:46;17.60;99.90
9762;DHT22;4920;49.594;11.022;2023-05-16T08:55:19;17.60;99.90
9762;DHT22;4920;49.594;11.022;2023-05-16T08:57:49;17.50;99.90
9762;DHT22;4920;49.594;11.022;2023-05-16T09:00:21;17.50;99.90
9762;DHT22;4920;49.594;11.022;2023-05-16T09:02:50;17.50;99.90
9762;DHT22;4920;49.594;11.022;2023-05-16T09:05:22;17.50;99.90
9762;DHT22;4920;49.594;11.022;2023-05-16T09:07:51;17.40;99.90
9762;DHT22;4920;49.594;11.022;2023-05-16T09:10:20;17.30;99.90
9762;DHT22;4920;49.594;11.022;2023-05-16T09:12:49;17.10;99.90
9762;DHT22;4920;49.594;11.022;2023-05-16T09:15:19;16.80;99.90
9762;DHT22;4920;49.594;11.022;2023-05-16T09:17:48;16.60;99.90
9762;DHT22;4920;49.594;11.022;2023-05-16T09:20:18;16.60;99.90
9762;DHT22;4920;49.594;11.022;2023-05-16T09:22:52;16.60;99.90
9762;DHT22;4920;49.594;11.022;2023-05-16T09:25:22;16.70;99.90
9762;DHT22;4920;49.594;11.022;2023-05-16T09:28:04;16.90;99.90
9762;DHT22;4920;49.594;11.022;2023-05-16T09:30:35;17.30;99.90
9762;DHT22;4920;49.594;11.022;2023-05-16T09:33:05;17.60;99.90
9762;DHT22;4920;49.594;11.022;2023-05-16T09:35:37;17.80;99.90
9762;DHT22;4920;49.594;11.022;2023-05-16T09:38:16;17.90;99.90
9762;DHT22;4920;49.594;11.022;2023-05-16T09:40:45;18.20;99.90
9762;DHT22;4920;49.594;11.022;2023-05-16T09:43:15;18.40;99.90
9762;DHT22;4920;49.594;11.022;2023-05-16T09:45:47;18.60;99.90
9762;DHT22;4920;49.594;11.022;2023-05-16T09:48:16;18.50;99.90
9762;DHT22;4920;49.594;11.022;2023-05-16T09:50:47;18.30;99.90
9762;DHT22;4920;49.594;11.022;2023-05-16T09:53:24;18.20;99.90
9762;DHT22;4920;49.594;11.022;2023-05-16T09:56:02;18.10;99.90
9762;DHT22;4920;49.594;11.022;2023-05-16T09:58:32;18.00;99.90
9762;DHT22;4920;49.594;11.022;2023-05-16T10:01:03;18.00;99.90
9762;DHT22;4920;49.594;11.022;2023-05-16T10:03:34;17.90;99.90
9762;DHT22;4920;49.594;11.022;2023-05-16T10:06:04;17.90;99.90
9762;DHT22;4920;49.594;11.022;2023-05-16T10:08:34;18.00;99.90
9762;DHT22;4920;49.594;11.022;2023-05-16T10:11:05;18.10;99.90
9762;DHT22;4920;49.594;11.022;2023-05-16T10:13:35;18.20;99.90
9762;DHT22;4920;49.594;11.022;2023-05-16T10:16:09;18.30;99.90
9762;DHT22;4920;49.594;11.022;2023-05-16T10:23:25;18.60;99.90
9762;DHT22;4920;49.594;11.022;2023-05-16T10:25:54;18.90;99.90
9762;DHT22;4920;49.594;11.022;2023-05-16T10:28:27;18.90;99.90
9762;DHT22;4920;49.594;11.022;2023-05-16T10:31:00;19.10;99.90
9762;DHT22;4920;49.594;11.022;2023-05-16T10:33:36;19.40;99.90
9762;DHT22;4920;49.594;11.022;2023-05-16T10:36:09;19.50;99.90
9762;DHT22;4920;49.594;11.022;2023-05-16T10:39:05;19.60;99.90
9762;DHT22;4920;49.594;11.022;2023-05-16T10:41:34;19.60;99.90
9762;DHT22;4920;49.594;11.022;2023-05-16T10:44:12;19.60;99.90
9762;DHT22;4920;49.594;11.022;2023-05-16T10:46:43;19.50;99.90
9762;DHT22;4920;49.594;11.022;2023-05-16T10:49:30;19.10;99.90
9762;DHT22;4920;49.594;11.022;2023-05-16T10:52:07;18.60;99.90
9762;DHT22;4920;49.594;11.022;2023-05-16T10:54:38;18.40;99.90
9762;DHT22;4920;49.594;11.022;2023-05-16T10:57:09;18.40;99.90
9762;DHT22;4920;49.594;11.022;2023-05-16T10:59:43;18.50;99.90
9762;DHT22;4920;49.594;11.022;2023-05-16T11:02:25;18.70;99.90
9762;DHT22;4920;49.594;11.022;2023-05-16T11:04:58;18.90;99.90
9762;DHT22;4920;49.594;11.022;2023-05-16T11:07:31;19.00;99.90
9762;DHT22;4920;49.594;11.022;2023-05-16T11:10:03;19.00;99.90
9762;DHT22;4920;49.594;11.022;2023-05-16T11:12:50;19.00;99.90
9762;DHT22;4920;49.594;11.022;2023-05-16T11:15:23;18.90;99.90
9762;DHT22;4920;49.594;11.022;2023-05-16T11:18:08;18.30;99.90
9762;DHT22;4920;49.594;11.022;2023-05-16T11:20:42;18.30;99.90
9762;DHT22;4920;49.594;11.022;2023-05-16T11:23:22;18.50;99.90
9762;DHT22;4920;49.594;11.022;2023-05-16T11:25:55;18.20;99.90
9762;DHT22;4920;49.594;11.022;2023-05-16T11:28:27;17.70;99.90
9762;DHT22;4920;49.594;11.022;2023-05-16T11:30:57;17.50;99.90
9762;DHT22;4920;49.594;11.022;2023-05-16T11:33:30;17.40;99.90
9762;DHT22;4920;49.594;11.022;2023-05-16T11:36:05;17.40;99.90
9762;DHT22;4920;49.594;11.022;2023-05-16T11:38:42;17.40;99.90
9762;DHT22;4920;49.594;11.022;2023-05-16T11:41:12;17.80;99.90
9762;DHT22;4920;49.594;11.022;2023-05-16T11:43:44;18.10;99.90
9762;DHT22;4920;49.594;11.022;2023-05-16T11:46:13;18.40;99.90
9762;DHT22;4920;49.594;11.022;2023-05-16T11:48:42;18.80;99.90
9762;DHT22;4920;49.594;11.022;2023-05-16T11:51:17;18.80;99.90
9762;DHT22;4920;49.594;11.022;2023-05-16T11:53:48;18.60;99.90
9762;DHT22;4920;49.594;11.022;2023-05-16T11:56:17;18.90;99.90
9762;DHT22;4920;49.594;11.022;2023-05-16T12:02:08;19.00;99.90
9762;DHT22;4920;49.594;11.022;2023-05-16T12:04:37;19.00;99.90
9762;DHT22;4920;49.594;11.022;2023-05-16T12:07:10;18.80;99.90
9762;DHT22;4920;49.594;11.022;2023-05-16T12:09:40;18.90;99.90
9762;DHT22;4920;49.594;11.022;2023-05-16T12:12:09;18.90;99.90
9762;DHT22;4920;49.594;11.022;2023-05-16T12:14:38;18.90;99.90
9762;DHT22;4920;49.594;11.022;2023-05-16T12:17:07;18.70;99.90
9762;DHT22;4920;49.594;11.022;2023-05-16T12:19:37;18.60;99.90
9762;DHT22;4920;49.594;11.022;2023-05-16T12:22:20;18.80;99.90
9762;DHT22;4920;49.594;11.022;2023-05-16T12:24:49;18.50;99.90
9762;DHT22;4920;49.594;11.022;2023-05-16T12:27:21;18.20;99.90
9762;DHT22;4920;49.594;11.022;2023-05-16T12:29:50;18.20;99.90
9762;DHT22;4920;49.594;11.022;2023-05-16T12:32:18;18.20;99.90
9762;DHT22;4920;49.594;11.022;2023-05-16T12:34:51;18.40;99.90
9762;DHT22;4920;49.594;11.022;2023-05-16T12:37:26;18.50;99.90
9762;DHT22;4920;49.594;11.022;2023-05-16T12:39:59;18.60;99.90
9762;DHT22;4920;49.594;11.022;2023-05-16T12:42:28;18.50;99.90
9762;DHT22;4920;49.594;11.022;2023-05-16T12:44:58;18.40;99.90
9762;DHT22;4920;49.594;11.022;2023-05-16T12:47:34;18.40;99.90
9762;DHT22;4920;49.594;11.022;2023-05-16T12:50:08;18.60;99.90
9762;DHT22;4920;49.594;11.022;2023-05-16T12:52:45;18.90;99.90
9762;DHT22;4920;49.594;11.022;2023-05-16T12:55:15;19.20;99.90
9762;DHT22;4920;49.594;11.022;2023-05-16T12:57:45;19.40;99.90
9762;DHT22;4920;49.594;11.022;2023-05-16T13:01:14;19.30;99.90
9762;DHT22;4920;49.594;11.022;2023-05-16T13:04:08;19.20;99.90
9762;DHT22;4920;49.594;11.022;2023-05-16T13:06:48;19.10;99.90
9762;DHT22;4920;49.594;11.022;2023-05-16T13:09:21;19.00;99.90
9762;DHT22;4920;49.594;11.022;2023-05-16T13:11:50;18.70;99.90
9762;DHT22;4920;49.594;11.022;2023-05-16T13:14:19;18.70;99.90
9762;DHT22;4920;49.594;11.022;2023-05-16T13:16:49;18.70;99.90
9762;DHT22;4920;49.594;11.022;2023-05-16T13:19:20;19.00;99.90
9762;DHT22;4920;49.594;11.022;2023-05-16T13:21:51;19.30;99.90
9762;DHT22;4920;49.594;11.022;2023-05-16T13:24:23;19.40;99.90
9762;DHT22;4920;49.594;11.022;2023-05-16T13:26:53;19.50;99.90
9762;DHT22;4920;49.594;11.022;2023-05-16T13:29:21;19.50;99.90
9762;DHT22;4920;49.594;11.022;2023-05-16T13:31:50;19.50;99.90
9762;DHT22;4920;49.594;11.022;2023-05-16T13:34:19;19.50;99.90
9762;DHT22;4920;49.594;11.022;2023-05-16T13:36:48;19.70;99.90
9762;DHT22;4920;49.594;11.022;2023-05-16T13:39:22;19.70;99.90
9762;DHT22;4920;49.594;11.022;2023-05-16T13:41:51;19.90;99.90
9762;DHT22;4920;49.594;11.022;2023-05-16T13:44:20;19.60;99.90
9762;DHT22;4920;49.594;11.022;2023-05-16T13:46:49;19.50;99.90
9762;DHT22;4920;49.594;11.022;2023-05-16T13:49:19;19.20;99.90
9762;DHT22;4920;49.594;11.022;2023-05-16T13:51:49;18.90;99.90
9762;DHT22;4920;49.594;11.022;2023-05-16T13:54:19;18.80;99.90
9762;DHT22;4920;49.594;11.022;2023-05-16T13:56:51;18.60;99.90
9762;DHT22;4920;49.594;11.022;2023-05-16T13:59:33;18.60;99.90
9762;DHT22;4920;49.594;11.022;2023-05-16T14:02:08;18.50;99.90
9762;DHT22;4920;49.594;11.022;2023-05-16T14:04:48;18.30;99.90
9762;DHT22;4920;49.594;11.022;2023-05-16T14:07:55;18.00;99.90
9762;DHT22;4920;49.594;11.022;2023-05-16T14:10:25;17.80;99.90
9762;DHT22;4920;49.594;11.022;2023-05-16T14:12:59;17.50;99.90
9762;DHT22;4920;49.594;11.022;2023-05-16T14:15:29;17.30;99.90
9762;DHT22;4920;49.594;11.022;2023-05-16T14:18:00;17.30;99.90
9762;DHT22;4920;49.594;11.022;2023-05-16T14:20:36;17.60;99.90
9762;DHT22;4920;49.594;11.022;2023-05-16T14:23:06;17.90;99.90
9762;DHT22;4920;49.594;11.022;2023-05-16T14:25:41;18.30;99.90
9762;DHT22;4920;49.594;11.022;2023-05-16T14:28:17;18.60;99.90
9762;DHT22;4920;49.594;11.022;2023-05-16T14:30:52;18.90;99.90
9762;DHT22;4920;49.594;11.022;2023-05-16T14:33:26;19.20;99.90
9762;DHT22;4920;49.594;11.022;2023-05-16T14:35:57;19.30;99.90
9762;DHT22;4920;49.594;11.022;2023-05-16T14:38:31;19.10;99.90
9762;DHT22;4920;49.594;11.022;2023-05-16T14:41:00;18.70;99.90
9762;DHT22;4920;49.594;11.022;2023-05-16T14:43:30;18.30;99.90
9762;DHT22;4920;49.594;11.022;2023-05-16T14:45:59;17.70;99.90
9762;DHT22;4920;49.594;11.022;2023-05-16T14:48:28;17.20;99.90
9762;DHT22;4920;49.594;11.022;2023-05-16T14:50:59;16.90;99.90
9762;DHT22;4920;49.594;11.022;2023-05-16T14:53:27;16.90;99.90
9762;DHT22;4920;49.594;11.022;2023-05-16T14:55:57;16.80;99.90
9762;DHT22;4920;49.594;11.022;2023-05-16T14:58:26;16.60;99.90
9762;DHT22;4920;49.594;11.022;2023-05-16T15:00:56;16.50;99.90
9762;DHT22;4920;49.594;11.022;2023-05-16T15:03:25;16.40;99.90
9762;DHT22;4920;49.594;11.022;2023-05-16T15:05:54;16.50;99.90
9762;DHT22;4920;49.594;11.022;2023-05-16T15:08:23;16.70;99.90
9762;DHT22;4920;49.594;11.022;2023-05-16T15:10:53;16.90;99.90
9762;DHT22;4920;49.594;11.022;2023-05-16T15:13:22;17.10;99.90
9762;DHT22;4920;49.594;11.022;2023-05-16T15:15:50;17.40;99.90
9762;DHT22;4920;49.594;11.022;2023-05-16T15:18:21;17.50;99.90
9762;DHT22;4920;49.594;11.022;2023-05-16T15:20:50;17.50;99.90
9762;DHT22;4920;49.594;11.022;2023-05-16T15:23:19;17.40;99.90
9762;DHT22;4920;49.594;11.022;2023-05-16T15:25:48;17.10;99.90
9762;DHT22;4920;49.594;11.022;2023-05-16T15:28:18;16.70;99.90
9762;DHT22;4920;49.594;11.022;2023-05-16T15:30:49;16.30;99.90
9762;DHT22;4920;49.594;11.022;2023-05-16T15:33:18;15.80;99.90
9762;DHT22;4920;49.594;11.022;2023-05-16T15:39:08;15.40;99.90
9762;DHT22;4920;49.594;11.022;2023-05-16T15:45:44;15.70;99.90
9762;DHT22;4920;49.594;11.022;2023-05-16T15:48:13;15.80;99.90
9762;DHT22;4920;49.594;11.022;2023-05-16T15:50:42;15.70;99.90
9762;DHT22;4920;49.594;11.022;2023-05-16T15:53:11;15.50;99.90
9762;DHT22;4920;49.594;11.022;2023-05-16T15:55:41;15.30;99.90
9762;DHT22;4920;49.594;11.022;2023-05-16T15:58:10;15.20;99.90
9762;DHT22;4920;49.594;11.022;2023-05-16T16:00:38;15.00;99.90
9762;DHT22;4920;49.594;11.022;2023-05-16T16:03:08;14.90;99.90
9762;DHT22;4920;49.594;11.022;2023-05-16T16:05:37;14.90;99.90
9762;DHT22;4920;49.594;11.022;2023-05-16T16:08:06;14.80;99.90
9762;DHT22;4920;49.594;11.022;2023-05-16T16:10:35;14.80;99.90
9762;DHT22;4920;49.594;11.022;2023-05-16T16:13:05;14.70;99.90
9762;DHT22;4920;49.594;11.022;2023-05-16T16:15:34;14.60;99.90
9762;DHT22;4920;49.594;11.022;2023-05-16T16:18:04;14.60;99.90
9762;DHT22;4920;49.594;11.022;2023-05-16T16:20:33;14.50;99.90
9762;DHT22;4920;49.594;11.022;2023-05-16T16:23:06;14.40;99.90
9762;DHT22;4920;49.594;11.022;2023-05-16T16:25:36;14.30;99.90
9762;DHT22;4920;49.594;11.022;2023-05-16T16:28:13;14.10;99.90